createdAt,value
2022-11-05T00:00:56.477Z,95.00
2022-11-05T00:03:48.018Z,94.90
2022-11-05T00:06:40.962Z,94.80
2022-11-05T00:09:36.863Z,94.60
2022-11-05T00:12:42.304Z,94.40
2022-11-05T00:15:33.460Z,94.20
2022-11-05T00:18:08.528Z,94.00
2022-11-05T00:20:48.683Z,93.80
2022-11-05T00:23:37.425Z,93.60
2022-11-05T00:26:20.660Z,93.40
2022-11-05T00:28:54.498Z,93.30
2022-11-05T00:31:32.175Z,93.30
2022-11-05T00:34:25.138Z,93.30
2022-11-05T00:37:00.430Z,93.20
2022-11-05T00:39:32.769Z,93.20
2022-11-05T00:42:33.162Z,93.10
2022-11-05T00:45:12.796Z,93.10
2022-11-05T00:48:06.924Z,93.30
2022-11-05T00:53:33.251Z,93.30
2022-11-05T00:56:10.627Z,93.40
2022-11-05T00:58:39.434Z,93.50
2022-11-05T01:01:12.289Z,93.50
2022-11-05T01:03:51.290Z,93.30
2022-11-05T01:06:23.828Z,93.20
2022-11-05T01:09:04.069Z,93.00
2022-11-05T01:11:42.181Z,92.90
2022-11-05T01:14:26.981Z,92.90
2022-11-05T01:17:19.032Z,92.60
2022-11-05T01:20:13.432Z,92.30
2022-11-05T01:22:57.677Z,92.20
2022-11-05T01:25:38.565Z,92.30
2022-11-05T01:28:17.662Z,91.90
2022-11-05T01:31:17.222Z,92.00
2022-11-05T01:33:56.334Z,91.90
2022-11-05T01:39:21.979Z,91.90
2022-11-05T01:42:23.548Z,92.00
2022-11-05T01:45:11.230Z,92.10
2022-11-05T01:48:00.032Z,92.10
2022-11-05T01:50:36.676Z,92.10
2022-11-05T01:53:24.205Z,91.90
2022-11-05T01:56:03.925Z,92.00
2022-11-05T01:59:04.470Z,91.60
2022-11-05T02:01:43.752Z,91.00
2022-11-05T02:04:36.261Z,91.00
2022-11-05T02:10:11.560Z,90.70
2022-11-05T02:13:16.386Z,90.60
2022-11-05T02:16:14.848Z,90.00
2022-11-05T02:19:01.389Z,90.30
2022-11-05T02:22:06.077Z,90.00
2022-11-05T02:25:03.443Z,89.80
2022-11-05T02:28:01.996Z,89.80
2022-11-05T02:30:58.705Z,89.80
2022-11-05T02:33:50.530Z,89.80
2022-11-05T02:36:26.853Z,90.00
2022-11-05T02:39:29.035Z,89.90
2022-11-05T02:42:32.372Z,89.80
2022-11-05T02:45:11.832Z,90.10
2022-11-05T02:47:54.176Z,90.20
2022-11-05T02:50:37.568Z,89.90
2022-11-05T02:53:33.591Z,89.80
2022-11-05T02:56:18.918Z,89.90
2022-11-05T02:59:02.198Z,89.50
2022-11-05T03:01:56.212Z,89.60
2022-11-05T03:04:44.010Z,89.00
2022-11-05T03:11:01.342Z,88.40
2022-11-05T03:17:02.657Z,86.90
2022-11-05T03:19:37.126Z,87.10
2022-11-05T03:22:27.842Z,85.50
2022-11-05T03:25:02.486Z,85.50
2022-11-05T03:27:39.408Z,85.70
2022-11-05T03:30:16.650Z,85.80
2022-11-05T03:33:18.754Z,86.00
2022-11-05T03:36:03.205Z,86.40
2022-11-05T03:38:52.069Z,87.00
2022-11-05T03:41:32.781Z,86.60
2022-11-05T03:44:26.639Z,86.30
2022-11-05T03:47:04.422Z,86.70
2022-11-05T03:49:58.766Z,86.60
2022-11-05T03:52:36.797Z,86.00
2022-11-05T03:55:12.245Z,86.20
2022-11-05T03:57:48.510Z,85.80
2022-11-05T04:00:21.101Z,85.70
2022-11-05T04:02:56.433Z,85.70
2022-11-05T04:05:37.034Z,85.50
2022-11-05T04:08:32.697Z,85.80
2022-11-05T04:11:24.803Z,85.70
2022-11-05T04:14:05.007Z,85.90
2022-11-05T04:16:59.912Z,86.10
2022-11-05T04:20:02.385Z,86.20
2022-11-05T04:23:10.104Z,86.20
2022-11-05T04:25:44.636Z,86.50
2022-11-05T04:28:28.679Z,86.20
2022-11-05T04:31:06.899Z,86.30
2022-11-05T04:33:47.427Z,86.20
2022-11-05T04:36:20.955Z,86.50
2022-11-05T04:38:55.174Z,86.80
2022-11-05T04:41:33.287Z,87.00
2022-11-05T04:46:53.464Z,87.10
2022-11-05T04:49:26.344Z,87.10
2022-11-05T04:51:54.090Z,86.90
2022-11-05T04:54:34.790Z,86.90
2022-11-05T04:57:09.204Z,86.70
2022-11-05T04:59:37.109Z,86.30
2022-11-05T05:02:07.330Z,86.50
2022-11-05T05:04:48.810Z,86.90
2022-11-05T05:07:17.583Z,86.60
2022-11-05T05:09:51.188Z,86.80
2022-11-05T05:12:31.762Z,86.70
2022-11-05T05:15:03.177Z,86.50
2022-11-05T05:17:33.125Z,86.60
2022-11-05T05:20:26.184Z,86.70
2022-11-05T05:23:01.094Z,86.90
2022-11-05T05:25:31.243Z,87.20
2022-11-05T05:28:00.737Z,87.20
2022-11-05T05:30:29.711Z,87.40
2022-11-05T05:33:16.593Z,87.60
2022-11-05T05:35:52.905Z,87.60
2022-11-05T05:38:43.347Z,87.70
2022-11-05T05:41:19.043Z,87.70
2022-11-05T05:43:55.511Z,87.70
2022-11-05T05:46:34.255Z,87.50
2022-11-05T05:49:06.585Z,87.50
2022-11-05T05:51:46.263Z,87.40
2022-11-05T05:54:31.748Z,87.70
2022-11-05T05:57:11.168Z,87.60
2022-11-05T06:02:38.466Z,87.90
2022-11-05T06:05:11.453Z,87.80
2022-11-05T06:07:41.951Z,87.90
2022-11-05T06:10:38.796Z,87.80
2022-11-05T06:13:22.619Z,87.70
2022-11-05T06:15:55.335Z,88.20
2022-11-05T06:18:34.445Z,88.20
2022-11-05T06:21:13.634Z,88.00
2022-11-05T06:24:09.541Z,88.10
2022-11-05T06:27:05.987Z,87.60
2022-11-05T06:29:37.544Z,87.90
2022-11-05T06:32:18.632Z,87.70
2022-11-05T06:34:55.174Z,87.90
2022-11-05T06:37:27.915Z,87.80
2022-11-05T06:40:10.664Z,87.80
2022-11-05T06:42:57.425Z,87.80
2022-11-05T06:45:41.068Z,88.00
2022-11-05T06:48:17.805Z,87.90
2022-11-05T06:50:46.990Z,87.70
2022-11-05T06:53:21.804Z,88.00
2022-11-05T06:56:26.788Z,88.10
2022-11-05T06:59:14.857Z,88.10
2022-11-05T07:02:20.996Z,88.10
2022-11-05T07:05:11.925Z,88.00
2022-11-05T07:07:45.159Z,87.80
2022-11-05T07:10:22.386Z,87.60
2022-11-05T07:13:30.903Z,87.70
2022-11-05T07:16:19.819Z,88.20
2022-11-05T07:18:55.537Z,88.00
2022-11-05T07:24:57.111Z,88.50
2022-11-05T07:33:39.718Z,88.20
2022-11-05T07:36:07.310Z,87.90
2022-11-05T07:38:35.286Z,88.20
2022-11-05T07:41:02.254Z,88.20
2022-11-05T07:43:30.334Z,88.10
2022-11-05T07:45:57.703Z,88.00
2022-11-05T07:48:28.210Z,88.00
2022-11-05T07:51:05.362Z,87.90
2022-11-05T07:53:32.428Z,87.70
2022-11-05T07:55:59.469Z,87.30
2022-11-05T07:58:29.456Z,87.10
2022-11-05T08:01:02.464Z,87.50
2022-11-05T08:03:30.611Z,87.90
2022-11-05T08:05:57.828Z,88.00
2022-11-05T08:08:27.089Z,87.80
2022-11-05T08:11:04.216Z,87.20
2022-11-05T08:13:33.794Z,87.40
2022-11-05T08:16:02.507Z,86.90
2022-11-05T08:18:34.443Z,86.80
2022-11-05T08:21:05.392Z,87.00
2022-11-05T08:23:33.475Z,87.50
2022-11-05T08:26:04.503Z,87.40
2022-11-05T08:28:35.453Z,87.60
2022-11-05T08:31:02.702Z,87.70
2022-11-05T08:33:37.614Z,87.70
2022-11-05T08:36:08.616Z,87.90
2022-11-05T08:38:36.619Z,87.60
2022-11-05T08:41:05.121Z,87.60
2022-11-05T08:43:38.897Z,87.10
2022-11-05T08:46:06.430Z,87.30
2022-11-05T08:48:34.958Z,87.50
2022-11-05T08:51:02.648Z,87.60
2022-11-05T08:53:32.268Z,87.50
2022-11-05T08:56:03.232Z,87.40
2022-11-05T08:58:34.533Z,87.30
2022-11-05T09:01:10.761Z,87.20
2022-11-05T09:03:43.876Z,87.20
2022-11-05T09:06:11.312Z,87.40
2022-11-05T09:08:41.498Z,87.40
2022-11-05T09:11:08.779Z,87.70
2022-11-05T09:13:36.342Z,87.60
2022-11-05T09:16:03.822Z,87.90
2022-11-05T09:18:40.848Z,87.40
2022-11-05T09:21:11.731Z,87.30
2022-11-05T09:23:39.587Z,87.60
2022-11-05T09:26:12.184Z,87.70
2022-11-05T09:28:46.296Z,87.70
2022-11-05T09:31:18.596Z,87.90
2022-11-05T09:33:45.930Z,87.50
2022-11-05T09:36:14.447Z,87.10
2022-11-05T09:38:42.398Z,86.80
2022-11-05T09:41:33.415Z,87.00
2022-11-05T09:44:15.476Z,87.00
2022-11-05T09:47:05.096Z,87.20
2022-11-05T09:49:54.115Z,87.30
2022-11-05T09:52:34.709Z,87.30
2022-11-05T09:55:05.230Z,87.30
2022-11-05T09:57:51.167Z,87.10
2022-11-05T10:00:20.253Z,86.90
2022-11-05T10:12:42.298Z,87.70
2022-11-05T10:15:56.924Z,88.20
2022-11-05T10:18:55.086Z,88.00
2022-11-05T10:25:15.670Z,88.00
2022-11-05T10:28:04.373Z,87.20
2022-11-05T10:31:09.594Z,87.40
2022-11-05T10:34:26.344Z,86.90
2022-11-05T10:40:46.659Z,86.20
2022-11-05T10:43:41.902Z,85.90
2022-11-05T10:46:41.249Z,85.80
2022-11-05T10:54:39.318Z,85.80
2022-11-05T10:56:51.859Z,85.40
2022-11-05T10:59:41.282Z,85.40
2022-11-05T11:02:18.990Z,85.80
2022-11-05T11:05:17.223Z,85.60
2022-11-05T11:10:28.944Z,85.60
2022-11-05T11:13:05.300Z,85.40
2022-11-05T11:15:33.453Z,85.30
2022-11-05T11:18:33.538Z,85.20
2022-11-05T11:21:17.000Z,84.90
2022-11-05T11:24:07.289Z,85.00
2022-11-05T11:26:43.080Z,85.20
2022-11-05T11:29:30.577Z,85.20
2022-11-05T11:32:39.799Z,85.10
2022-11-05T11:35:18.726Z,85.30
2022-11-05T11:37:52.464Z,85.20
2022-11-05T11:40:34.629Z,85.30
2022-11-05T11:43:06.961Z,85.30
2022-11-05T11:45:54.568Z,85.20
2022-11-05T11:48:43.313Z,84.90
2022-11-05T11:51:26.206Z,85.10
2022-11-05T11:54:02.975Z,85.20
2022-11-05T11:56:47.646Z,85.10
2022-11-05T11:59:20.450Z,84.80
2022-11-05T12:02:10.927Z,84.70
2022-11-05T12:04:56.034Z,84.90
2022-11-05T12:07:50.094Z,84.80
2022-11-05T12:11:13.983Z,84.50
2022-11-05T12:14:09.583Z,84.80
2022-11-05T12:17:12.496Z,84.70
2022-11-05T12:20:07.609Z,84.80
2022-11-05T12:22:48.079Z,84.80
2022-11-05T12:25:47.834Z,84.90
2022-11-05T12:29:19.557Z,84.70
2022-11-05T12:32:36.263Z,84.80
2022-11-05T12:38:32.036Z,84.80
2022-11-05T12:41:25.953Z,84.40
2022-11-05T12:44:14.919Z,84.50
2022-11-05T12:47:19.424Z,84.20
2022-11-05T12:50:13.598Z,84.30
2022-11-05T12:53:24.448Z,84.60
2022-11-05T12:55:55.707Z,84.50
2022-11-05T12:58:31.462Z,84.40
2022-11-05T13:01:34.986Z,84.60
2022-11-05T13:04:14.192Z,84.60
2022-11-05T13:06:52.177Z,84.40
2022-11-05T13:09:35.440Z,84.30
2022-11-05T13:12:10.429Z,84.20
2022-11-05T13:14:56.560Z,84.40
2022-11-05T13:17:49.587Z,84.10
2022-11-05T13:20:26.684Z,84.20
2022-11-05T13:23:04.736Z,84.50
2022-11-05T13:25:38.915Z,84.20
2022-11-05T13:28:42.520Z,84.20
2022-11-05T13:31:18.243Z,84.40
2022-11-05T13:33:48.429Z,84.20
2022-11-05T13:36:52.779Z,84.10
2022-11-05T13:39:33.013Z,84.10
2022-11-05T13:42:39.068Z,83.90
2022-11-05T13:45:13.688Z,83.90
2022-11-05T13:48:02.416Z,84.00
2022-11-05T13:50:41.952Z,83.90
2022-11-05T13:53:35.935Z,83.90
2022-11-05T13:56:32.591Z,84.00
2022-11-05T13:59:16.426Z,83.70
2022-11-05T14:02:15.023Z,83.60
2022-11-05T14:05:00.478Z,83.60
2022-11-05T14:07:55.594Z,83.60
2022-11-05T14:11:04.103Z,83.60
2022-11-05T14:13:45.892Z,83.50
2022-11-05T14:16:24.612Z,83.40
2022-11-05T14:19:22.092Z,83.30
2022-11-05T14:21:59.372Z,83.50
2022-11-05T14:24:37.478Z,83.60
2022-11-05T14:27:05.339Z,83.50
2022-11-05T14:29:48.178Z,83.70
2022-11-05T14:32:23.207Z,83.70
2022-11-05T14:35:25.070Z,84.20
2022-11-05T14:37:59.312Z,84.10
2022-11-05T14:40:58.734Z,84.30
2022-11-05T14:43:51.579Z,84.30
2022-11-05T14:46:46.712Z,84.60
2022-11-05T14:49:30.053Z,84.70
2022-11-05T14:52:11.163Z,85.40
2022-11-05T14:54:53.543Z,85.80
2022-11-05T14:57:47.230Z,85.60
2022-11-05T15:00:37.147Z,86.10
2022-11-05T15:03:32.081Z,86.30
2022-11-05T15:06:23.562Z,86.80
2022-11-05T15:08:56.658Z,87.20
2022-11-05T15:12:18.745Z,87.50
2022-11-05T15:15:00.962Z,87.70
2022-11-05T15:17:49.302Z,87.80
2022-11-05T15:20:20.356Z,87.80
2022-11-05T15:23:02.443Z,88.00
2022-11-05T15:26:33.016Z,88.20
2022-11-05T15:29:01.642Z,87.70
2022-11-05T15:31:45.280Z,88.10
2022-11-05T15:34:35.563Z,88.10
2022-11-05T15:40:05.211Z,88.00
2022-11-05T15:42:33.172Z,88.10
2022-11-05T15:45:02.022Z,88.00
2022-11-05T15:47:39.667Z,87.80
2022-11-05T15:50:15.517Z,87.80
2022-11-05T15:52:52.000Z,87.70
2022-11-05T15:55:27.531Z,87.30
2022-11-05T15:58:07.318Z,87.20
2022-11-05T16:00:44.205Z,86.90
2022-11-05T16:03:37.686Z,86.60
2022-11-05T16:06:10.589Z,86.40
2022-11-05T16:08:40.443Z,86.00
2022-11-05T16:11:21.414Z,86.20
2022-11-05T16:13:52.268Z,86.10
2022-11-05T16:16:33.675Z,85.80
2022-11-05T16:19:10.202Z,86.00
2022-11-05T16:21:57.088Z,86.10
2022-11-05T16:24:29.418Z,86.10
2022-11-05T16:27:04.142Z,85.90
2022-11-05T16:29:44.703Z,86.20
2022-11-05T16:32:29.735Z,86.30
2022-11-05T16:35:00.748Z,86.40
2022-11-05T16:37:41.180Z,86.10
2022-11-05T16:40:32.144Z,86.10
2022-11-05T16:43:27.135Z,86.10
2022-11-05T16:46:03.524Z,86.00
2022-11-05T16:48:33.804Z,86.00
2022-11-05T16:51:33.255Z,86.10
2022-11-05T16:54:03.542Z,86.00
2022-11-05T16:56:33.911Z,86.50
2022-11-05T16:59:03.008Z,86.70
2022-11-05T17:01:37.153Z,87.20
2022-11-05T17:04:13.185Z,87.70
2022-11-05T17:09:34.766Z,88.40
2022-11-05T17:12:02.541Z,88.50
2022-11-05T17:14:37.700Z,89.00
2022-11-05T17:17:06.054Z,89.30
2022-11-05T17:19:42.537Z,89.80
2022-11-05T17:22:20.727Z,89.70
2022-11-05T17:24:48.095Z,89.90
2022-11-05T17:27:43.209Z,90.40
2022-11-05T17:30:33.473Z,90.20
2022-11-05T17:33:08.654Z,90.70
2022-11-05T17:35:48.673Z,90.80
2022-11-05T17:38:24.986Z,91.50
2022-11-05T17:41:00.325Z,91.60
2022-11-05T17:43:32.969Z,91.60
2022-11-05T17:46:04.305Z,91.90
2022-11-05T17:48:54.126Z,92.10
2022-11-05T17:51:25.441Z,91.60
2022-11-05T17:53:52.762Z,91.90
2022-11-05T17:56:32.114Z,91.60
2022-11-05T17:59:02.462Z,91.80
2022-11-05T18:01:34.858Z,91.80
2022-11-05T18:04:08.738Z,91.80
2022-11-05T18:06:44.266Z,91.60
2022-11-05T18:09:16.052Z,91.30
2022-11-05T18:11:47.703Z,91.40
2022-11-05T18:14:26.457Z,91.40
2022-11-05T18:17:03.954Z,91.10
2022-11-05T18:19:43.123Z,91.50
2022-11-05T18:22:16.484Z,92.00
2022-11-05T18:24:48.246Z,91.90
2022-11-05T18:27:16.162Z,91.90
2022-11-05T18:29:59.213Z,92.00
2022-11-05T18:32:26.693Z,92.10
2022-11-05T18:34:58.736Z,92.20
2022-11-05T18:37:30.649Z,92.30
2022-11-05T18:40:05.078Z,92.60
2022-11-05T18:42:37.814Z,92.70
2022-11-05T18:45:14.795Z,92.60
2022-11-05T18:47:46.357Z,92.80
2022-11-05T18:50:19.105Z,92.70
2022-11-05T18:52:51.255Z,92.70
2022-11-05T18:55:23.835Z,92.80
2022-11-05T18:57:54.374Z,92.90
2022-11-05T19:00:29.877Z,93.10
2022-11-05T19:03:00.287Z,93.10
2022-11-05T19:05:41.182Z,93.00
2022-11-05T19:08:18.182Z,93.30
2022-11-05T19:10:53.415Z,93.40
2022-11-05T19:13:27.145Z,93.80
2022-11-05T19:15:54.376Z,94.30
2022-11-05T19:18:23.412Z,94.60
2022-11-05T19:20:53.567Z,95.30
2022-11-05T19:23:21.037Z,94.90
2022-11-05T19:25:54.229Z,95.30
2022-11-05T19:28:21.680Z,95.60
2022-11-05T19:30:56.103Z,95.50
2022-11-05T19:33:32.010Z,96.00
2022-11-05T19:35:59.802Z,96.20
2022-11-05T19:38:35.261Z,96.30
2022-11-05T19:41:08.197Z,96.30
2022-11-05T19:43:39.154Z,96.00
2022-11-05T19:46:11.603Z,96.20
2022-11-05T19:48:47.146Z,96.10
2022-11-05T19:51:33.048Z,95.80
2022-11-05T19:54:01.818Z,96.00
2022-11-05T19:56:31.832Z,96.10
2022-11-05T19:58:59.988Z,96.40
2022-11-05T20:01:38.549Z,96.50
2022-11-05T20:04:06.311Z,96.20
2022-11-05T20:06:59.726Z,96.00
2022-11-05T20:09:37.403Z,96.30
2022-11-05T20:12:04.701Z,96.40
2022-11-05T20:14:31.925Z,96.50
2022-11-05T20:17:00.721Z,96.50
2022-11-05T20:19:36.848Z,96.50
2022-11-05T20:22:03.844Z,96.40
2022-11-05T20:24:37.073Z,96.60
2022-11-05T20:27:04.319Z,96.50
2022-11-05T20:29:38.266Z,96.40
2022-11-05T20:32:05.402Z,96.50
2022-11-05T20:34:35.700Z,96.60
2022-11-05T20:37:03.086Z,96.80
2022-11-05T20:39:31.294Z,96.90
2022-11-05T20:42:17.090Z,97.00
2022-11-05T20:44:44.260Z,97.00
2022-11-05T20:47:11.785Z,97.20
2022-11-05T20:49:41.506Z,97.30
2022-11-05T20:52:10.999Z,97.30
2022-11-05T20:54:46.804Z,97.40
2022-11-05T20:57:13.948Z,97.50
2022-11-05T20:59:41.760Z,97.70
2022-11-05T21:02:13.458Z,97.90
2022-11-05T21:04:41.454Z,97.70
2022-11-05T21:07:17.765Z,97.70
2022-11-05T21:09:45.466Z,97.60
2022-11-05T21:12:12.988Z,97.50
2022-11-05T21:14:42.756Z,97.50
2022-11-05T21:17:16.690Z,97.70
2022-11-05T21:19:47.435Z,98.00
2022-11-05T21:22:18.126Z,98.00
2022-11-05T21:24:48.144Z,98.10
2022-11-05T21:27:18.386Z,98.00
2022-11-05T21:30:07.019Z,97.90
2022-11-05T21:35:22.630Z,98.10
2022-11-05T21:37:50.554Z,98.20
2022-11-05T21:40:20.923Z,98.20
2022-11-05T21:43:01.040Z,98.40
2022-11-05T21:45:28.334Z,98.80
2022-11-05T21:47:56.554Z,98.80
2022-11-05T21:50:42.675Z,98.80
2022-11-05T21:53:45.520Z,98.90
2022-11-05T21:56:39.897Z,99.10
2022-11-05T21:59:36.275Z,99.00
2022-11-05T22:02:11.626Z,98.80
2022-11-05T22:04:41.868Z,99.10
2022-11-05T22:07:11.628Z,99.20
2022-11-05T22:09:39.105Z,99.20
2022-11-05T22:12:07.223Z,99.20
2022-11-05T22:14:35.268Z,99.20
2022-11-05T22:17:05.486Z,99.10
2022-11-05T22:19:33.578Z,99.10
2022-11-05T22:22:01.987Z,99.00
2022-11-05T22:24:33.204Z,99.10
2022-11-05T22:27:02.571Z,99.30
2022-11-05T22:29:29.923Z,99.00
2022-11-05T22:31:59.980Z,99.10
2022-11-05T22:34:27.938Z,99.00
2022-11-05T22:36:55.972Z,98.90
2022-11-05T22:39:26.185Z,99.10
2022-11-05T22:42:02.960Z,99.20
2022-11-05T22:44:36.602Z,99.30
2022-11-05T22:47:06.692Z,99.40
2022-11-05T22:49:34.024Z,99.30
2022-11-05T22:52:03.457Z,99.30
2022-11-05T22:54:39.011Z,99.20
2022-11-05T22:57:10.723Z,99.20
2022-11-05T22:59:40.533Z,99.10
2022-11-05T23:02:10.013Z,99.20
2022-11-05T23:04:41.307Z,99.20
2022-11-05T23:07:39.329Z,99.20
2022-11-05T23:10:32.883Z,99.20
2022-11-05T23:13:05.612Z,99.30
2022-11-05T23:15:51.640Z,99.30
2022-11-05T23:18:44.301Z,99.40
2022-11-05T23:21:34.440Z,99.40
2022-11-05T23:24:04.872Z,99.50
2022-11-05T23:26:52.387Z,99.30
2022-11-05T23:29:41.171Z,99.30
2022-11-05T23:32:27.223Z,99.70
2022-11-05T23:34:57.002Z,99.70
2022-11-05T23:37:49.186Z,99.60
2022-11-05T23:40:20.030Z,99.50
2022-11-05T23:43:08.940Z,99.50
2022-11-05T23:45:48.281Z,99.50
2022-11-05T23:48:41.364Z,99.70
2022-11-05T23:51:10.829Z,99.40
2022-11-05T23:53:41.581Z,99.30
2022-11-05T23:56:14.137Z,99.40
2022-11-05T23:58:46.099Z,99.60
